createdAt,value
2023-02-17T00:01:14.977Z,6.30
2023-02-17T00:03:42.318Z,6.20
2023-02-17T00:06:11.936Z,6.10
2023-02-17T00:08:39.177Z,6.10
2023-02-17T00:11:07.048Z,6.10
2023-02-17T00:13:34.284Z,6.10
2023-02-17T00:16:08.224Z,6.10
2023-02-17T00:18:36.477Z,6.00
2023-02-17T00:21:13.630Z,6.00
2023-02-17T00:23:41.303Z,6.00
2023-02-17T00:26:08.965Z,6.00
2023-02-17T00:28:36.712Z,6.10
2023-02-17T00:31:08.732Z,6.10
2023-02-17T00:33:36.550Z,6.20
2023-02-17T00:36:06.059Z,6.20
2023-02-17T00:38:34.009Z,6.20
2023-02-17T00:41:01.713Z,6.10
2023-02-17T00:43:29.385Z,6.10
2023-02-17T00:45:57.067Z,6.20
2023-02-17T00:48:26.048Z,6.30
2023-02-17T00:50:53.120Z,6.30
2023-02-17T00:53:20.602Z,6.40
2023-02-17T00:55:50.070Z,6.50
2023-02-17T00:58:18.090Z,6.60
2023-02-17T01:00:45.349Z,6.60
2023-02-17T01:03:12.922Z,6.50
2023-02-17T01:05:44.155Z,6.40
2023-02-17T01:08:12.103Z,6.50
2023-02-17T01:10:41.433Z,6.50
2023-02-17T01:13:09.429Z,6.50
2023-02-17T01:15:38.739Z,6.40
2023-02-17T01:18:06.471Z,6.40
2023-02-17T01:20:36.239Z,6.50
2023-02-17T01:23:05.457Z,6.50
2023-02-17T01:25:36.753Z,6.50
2023-02-17T01:28:05.260Z,6.60
2023-02-17T01:30:32.971Z,6.70
2023-02-17T01:33:00.127Z,6.70
2023-02-17T01:35:27.726Z,6.70
2023-02-17T01:37:54.830Z,6.50
2023-02-17T01:40:24.071Z,6.50
2023-02-17T01:42:51.345Z,6.50
2023-02-17T01:45:36.273Z,6.40
2023-02-17T01:48:08.873Z,6.50
2023-02-17T01:50:40.504Z,6.50
2023-02-17T01:53:09.927Z,6.60
2023-02-17T01:55:41.630Z,6.60
2023-02-17T01:58:12.688Z,6.60
2023-02-17T02:00:40.402Z,6.50
2023-02-17T02:03:11.289Z,6.50
2023-02-17T02:05:40.342Z,6.60
2023-02-17T02:08:08.309Z,6.70
2023-02-17T02:10:35.411Z,6.80
2023-02-17T02:13:04.725Z,6.80
2023-02-17T02:15:40.117Z,6.80
2023-02-17T02:18:40.354Z,6.70
2023-02-17T02:22:04.926Z,6.60
2023-02-17T02:24:47.119Z,6.50
2023-02-17T02:27:42.537Z,6.50
2023-02-17T02:30:50.963Z,6.50
2023-02-17T02:33:30.080Z,6.50
2023-02-17T02:36:03.813Z,6.60
2023-02-17T02:38:38.443Z,6.70
2023-02-17T02:41:10.938Z,6.80
2023-02-17T02:43:38.978Z,7.00
2023-02-17T02:46:06.976Z,7.00
2023-02-17T02:48:36.115Z,6.90
2023-02-17T02:51:38.084Z,6.90
2023-02-17T02:54:37.549Z,6.80
2023-02-17T02:57:27.560Z,6.80
2023-02-17T03:00:12.148Z,6.70
2023-02-17T03:02:45.962Z,6.70
2023-02-17T03:05:23.273Z,6.80
2023-02-17T03:07:58.698Z,6.80
2023-02-17T03:10:26.658Z,6.80
2023-02-17T03:12:54.383Z,6.80
2023-02-17T03:15:27.976Z,6.80
2023-02-17T03:17:58.190Z,6.90
2023-02-17T03:20:29.563Z,7.00
2023-02-17T03:22:57.497Z,7.00
2023-02-17T03:25:24.621Z,7.00
2023-02-17T03:27:51.780Z,7.00
2023-02-17T03:30:21.912Z,7.10
2023-02-17T03:32:49.193Z,7.00
2023-02-17T03:35:16.852Z,7.10
2023-02-17T03:37:45.398Z,7.10
2023-02-17T03:40:12.731Z,7.10
2023-02-17T03:42:40.324Z,7.10
2023-02-17T03:45:08.449Z,7.00
2023-02-17T03:47:36.066Z,7.00
2023-02-17T03:50:03.825Z,7.00
2023-02-17T03:52:31.301Z,7.00
2023-02-17T03:55:00.553Z,7.10
2023-02-17T03:57:28.362Z,7.10
2023-02-17T03:59:55.581Z,7.10
2023-02-17T04:02:22.870Z,7.10
2023-02-17T04:04:50.111Z,7.10
2023-02-17T04:07:38.231Z,7.10
2023-02-17T04:10:09.654Z,7.20
2023-02-17T04:12:37.336Z,7.10
2023-02-17T04:15:05.319Z,7.10
2023-02-17T04:17:33.202Z,7.10
2023-02-17T04:20:00.581Z,7.20
2023-02-17T04:22:28.156Z,7.10
2023-02-17T04:24:55.329Z,7.20
2023-02-17T04:27:24.503Z,7.10
2023-02-17T04:29:52.661Z,7.10
2023-02-17T04:32:19.954Z,7.10
2023-02-17T04:34:47.462Z,7.20
2023-02-17T04:37:14.703Z,7.40
2023-02-17T04:39:41.948Z,7.50
2023-02-17T04:42:09.601Z,7.60
2023-02-17T04:44:38.537Z,7.60
2023-02-17T04:47:05.995Z,7.70
2023-02-17T04:49:33.805Z,7.70
2023-02-17T04:52:00.931Z,7.70
2023-02-17T04:54:28.253Z,7.70
2023-02-17T04:56:55.825Z,7.70
2023-02-17T04:59:24.733Z,7.70
2023-02-17T05:01:54.122Z,7.70
2023-02-17T05:04:24.085Z,7.70
2023-02-17T05:06:54.251Z,7.70
2023-02-17T05:09:21.772Z,7.70
2023-02-17T05:11:49.006Z,7.70
2023-02-17T05:14:16.663Z,7.80
2023-02-17T05:19:30.235Z,7.90
2023-02-17T05:21:57.848Z,8.00
2023-02-17T05:24:25.430Z,8.10
2023-02-17T05:26:52.494Z,8.10
2023-02-17T05:29:20.278Z,8.10
2023-02-17T05:31:47.865Z,8.20
2023-02-17T05:34:15.110Z,8.20
2023-02-17T05:36:43.968Z,8.20
2023-02-17T05:39:11.644Z,8.20
2023-02-17T05:41:38.867Z,8.30
2023-02-17T05:44:06.036Z,8.30
2023-02-17T05:46:33.299Z,8.40
2023-02-17T05:49:00.890Z,8.40
2023-02-17T05:51:28.448Z,8.50
2023-02-17T05:53:57.241Z,8.50
2023-02-17T05:56:24.464Z,8.50
2023-02-17T05:58:51.594Z,8.50
2023-02-17T06:01:18.851Z,8.50
2023-02-17T06:03:46.030Z,8.50
2023-02-17T06:06:13.753Z,8.50
2023-02-17T06:08:41.038Z,8.40
2023-02-17T06:11:10.296Z,8.50
2023-02-17T06:13:38.452Z,8.60
2023-02-17T06:16:06.964Z,8.70
2023-02-17T06:18:34.259Z,8.80
2023-02-17T06:21:01.485Z,8.80
2023-02-17T06:23:31.013Z,8.80
2023-02-17T06:25:58.811Z,8.80
2023-02-17T06:28:28.021Z,8.80
2023-02-17T06:30:55.735Z,8.80
2023-02-17T06:33:22.824Z,8.80
2023-02-17T06:35:51.157Z,8.80
2023-02-17T06:38:19.107Z,8.80
2023-02-17T06:40:46.982Z,8.80
2023-02-17T06:43:14.416Z,8.80
2023-02-17T06:45:43.050Z,8.90
2023-02-17T06:48:10.605Z,8.90
2023-02-17T06:50:38.834Z,9.00
2023-02-17T06:53:06.160Z,9.10
2023-02-17T06:55:35.407Z,9.10
2023-02-17T06:58:02.680Z,9.20
2023-02-17T07:00:29.886Z,9.20
2023-02-17T07:02:58.892Z,9.10
2023-02-17T07:05:26.216Z,9.20
2023-02-17T07:07:53.753Z,9.20
2023-02-17T07:10:21.101Z,9.20
2023-02-17T07:12:48.843Z,9.20
2023-02-17T07:15:16.132Z,9.20
2023-02-17T07:17:43.352Z,9.30
2023-02-17T07:20:13.357Z,9.40
2023-02-17T07:22:41.360Z,9.40
2023-02-17T07:25:08.809Z,9.50
2023-02-17T07:27:37.051Z,9.50
2023-02-17T07:30:17.905Z,9.50
2023-02-17T07:32:48.570Z,9.60
2023-02-17T07:35:17.258Z,9.60
2023-02-17T07:37:44.342Z,9.60
2023-02-17T07:40:12.896Z,9.70
2023-02-17T07:42:40.146Z,9.60
2023-02-17T07:45:08.311Z,9.70
2023-02-17T07:47:35.507Z,9.70
2023-02-17T07:50:02.916Z,9.70
2023-02-17T07:52:31.633Z,9.70
2023-02-17T07:54:59.440Z,9.70
2023-02-17T07:57:26.558Z,9.70
2023-02-17T07:59:53.765Z,9.80
2023-02-17T08:02:21.541Z,9.80
2023-02-17T08:04:48.802Z,9.80
2023-02-17T08:07:16.120Z,9.80
2023-02-17T08:10:03.324Z,9.90
2023-02-17T08:12:49.552Z,9.90
2023-02-17T08:15:16.927Z,9.90
2023-02-17T08:17:44.467Z,10.00
2023-02-17T08:20:13.682Z,10.00
2023-02-17T08:22:40.925Z,10.00
2023-02-17T08:25:10.530Z,10.10
2023-02-17T08:27:37.767Z,10.10
2023-02-17T08:30:07.059Z,10.10
2023-02-17T08:32:34.302Z,10.20
2023-02-17T08:35:01.941Z,10.20
2023-02-17T08:37:30.332Z,10.20
2023-02-17T08:39:59.073Z,10.20
2023-02-17T08:42:28.064Z,10.20
2023-02-17T08:44:56.138Z,10.20
2023-02-17T08:47:24.387Z,10.20
2023-02-17T08:49:51.673Z,10.30
2023-02-17T08:52:19.151Z,10.20
2023-02-17T08:54:46.448Z,10.30
2023-02-17T08:57:13.629Z,10.30
2023-02-17T08:59:42.374Z,10.30
2023-02-17T09:02:11.188Z,10.30
2023-02-17T09:04:38.493Z,10.30
2023-02-17T09:07:09.719Z,10.30
2023-02-17T09:09:37.278Z,10.30
2023-02-17T09:12:05.124Z,10.30
2023-02-17T09:14:33.314Z,10.40
2023-02-17T09:17:02.164Z,10.40
2023-02-17T09:19:29.484Z,10.40
2023-02-17T09:22:00.261Z,10.40
2023-02-17T09:24:28.205Z,10.50
2023-02-17T09:27:02.854Z,10.50
2023-02-17T09:29:30.452Z,10.50
2023-02-17T09:31:57.822Z,10.50
2023-02-17T09:34:32.309Z,10.60
2023-02-17T09:36:59.536Z,10.60
2023-02-17T09:39:28.905Z,10.60
2023-02-17T09:42:02.653Z,10.70
2023-02-17T09:44:39.801Z,10.70
2023-02-17T09:47:18.328Z,10.80
2023-02-17T09:49:51.645Z,10.80
2023-02-17T09:52:28.335Z,10.90
2023-02-17T09:55:05.006Z,10.90
2023-02-17T09:57:37.405Z,10.90
2023-02-17T10:00:11.811Z,11.00
2023-02-17T10:02:49.859Z,11.00
2023-02-17T10:05:24.092Z,11.00
2023-02-17T10:07:57.995Z,11.10
2023-02-17T10:10:32.015Z,11.10
2023-02-17T10:13:03.127Z,11.20
2023-02-17T10:15:36.494Z,11.20
2023-02-17T10:18:12.201Z,11.30
2023-02-17T10:23:31.305Z,11.40
2023-02-17T10:26:14.882Z,11.40
2023-02-17T10:28:52.095Z,11.50
2023-02-17T10:31:44.018Z,11.50
2023-02-17T10:34:23.593Z,11.60
2023-02-17T10:37:01.023Z,11.60
2023-02-17T10:39:43.095Z,11.60
2023-02-17T10:42:20.609Z,11.70
2023-02-17T10:44:50.823Z,11.80
2023-02-17T10:47:20.700Z,11.80
2023-02-17T10:49:52.124Z,11.90
2023-02-17T10:52:23.682Z,12.00
2023-02-17T10:55:00.508Z,12.00
2023-02-17T10:57:33.422Z,12.10
2023-02-17T11:00:01.147Z,12.20
2023-02-17T11:02:37.908Z,12.30
2023-02-17T11:05:08.994Z,12.40
2023-02-17T11:07:41.885Z,12.40
2023-02-17T11:10:22.893Z,12.50
2023-02-17T11:12:51.370Z,12.60
2023-02-17T11:15:22.403Z,12.60
2023-02-17T11:17:49.808Z,12.70
2023-02-17T11:20:35.973Z,12.70
2023-02-17T11:23:22.030Z,12.80
2023-02-17T11:26:03.702Z,12.80
2023-02-17T11:28:31.095Z,12.80
2023-02-17T11:31:03.586Z,12.80
2023-02-17T11:33:34.502Z,12.90
2023-02-17T11:36:03.245Z,12.90
2023-02-17T11:38:42.486Z,12.90
2023-02-17T11:41:11.227Z,12.90
2023-02-17T11:43:39.920Z,13.00
2023-02-17T11:46:22.646Z,12.90
2023-02-17T11:49:46.183Z,13.00
2023-02-17T11:52:26.806Z,13.00
2023-02-17T11:55:21.476Z,13.00
2023-02-17T11:58:05.926Z,13.00
2023-02-17T12:00:43.536Z,13.10
2023-02-17T12:03:48.350Z,13.10
2023-02-17T12:06:38.271Z,13.10
2023-02-17T12:09:19.645Z,13.10
2023-02-17T12:11:59.760Z,13.10
2023-02-17T12:15:02.679Z,13.20
2023-02-17T12:17:43.074Z,13.30
2023-02-17T12:20:32.170Z,13.30
2023-02-17T12:23:16.752Z,13.30
2023-02-17T12:25:50.729Z,13.40
2023-02-17T12:28:45.549Z,13.30
2023-02-17T12:31:29.849Z,13.40
2023-02-17T12:34:01.997Z,13.40
2023-02-17T12:39:25.218Z,13.40
2023-02-17T12:41:58.464Z,13.30
2023-02-17T12:44:31.156Z,13.30
2023-02-17T12:47:10.107Z,13.30
2023-02-17T12:49:44.929Z,13.30
2023-02-17T12:52:22.337Z,13.30
2023-02-17T12:54:54.978Z,13.30
2023-02-17T12:57:28.487Z,13.30
2023-02-17T12:59:59.657Z,13.40
2023-02-17T13:02:32.044Z,13.30
2023-02-17T13:05:05.475Z,13.30
2023-02-17T13:07:46.979Z,13.30
2023-02-17T13:10:31.438Z,13.30
2023-02-17T13:13:06.471Z,13.30
2023-02-17T13:15:42.799Z,13.30
2023-02-17T13:18:15.104Z,13.30
2023-02-17T13:20:54.465Z,13.30
2023-02-17T13:23:38.470Z,13.30
2023-02-17T13:26:35.520Z,13.30
2023-02-17T13:29:34.521Z,13.40
2023-02-17T13:32:06.642Z,13.40
2023-02-17T13:34:40.450Z,13.40
2023-02-17T13:37:24.941Z,13.40
2023-02-17T13:39:52.726Z,13.40
2023-02-17T13:42:39.607Z,13.40
2023-02-17T13:45:21.516Z,13.40
2023-02-17T13:50:45.634Z,13.40
2023-02-17T13:53:32.117Z,13.40
2023-02-17T13:56:01.514Z,13.40
2023-02-17T13:58:31.714Z,13.40
2023-02-17T14:01:01.099Z,13.40
2023-02-17T14:03:34.950Z,13.40
2023-02-17T14:06:04.543Z,13.40
2023-02-17T14:08:37.433Z,13.40
2023-02-17T14:11:10.796Z,13.40
2023-02-17T14:13:41.868Z,13.40
2023-02-17T14:16:33.927Z,13.40
2023-02-17T14:19:06.624Z,13.50
2023-02-17T14:21:35.693Z,13.60
2023-02-17T14:24:06.615Z,14.00
2023-02-17T14:26:39.558Z,14.40
2023-02-17T14:29:11.455Z,14.60
2023-02-17T14:31:42.179Z,14.60
2023-02-17T14:34:26.698Z,14.40
2023-02-17T14:36:53.981Z,14.20
2023-02-17T14:39:22.164Z,14.10
2023-02-17T14:41:49.399Z,14.00
2023-02-17T14:44:16.684Z,13.90
2023-02-17T14:46:44.058Z,13.80
2023-02-17T14:51:57.598Z,13.80
2023-02-17T14:54:26.609Z,13.80
2023-02-17T14:57:05.098Z,13.70
2023-02-17T14:59:32.577Z,13.70
2023-02-17T15:02:00.702Z,13.70
2023-02-17T15:04:28.257Z,13.70
2023-02-17T15:07:02.270Z,13.70
2023-02-17T15:09:31.417Z,13.70
2023-02-17T15:11:59.838Z,13.70
2023-02-17T15:14:27.672Z,13.70
2023-02-17T15:16:55.374Z,13.60
2023-02-17T15:19:23.094Z,13.60
2023-02-17T15:21:52.265Z,13.60
2023-02-17T15:24:28.274Z,13.60
2023-02-17T15:26:57.165Z,13.60
2023-02-17T15:29:28.576Z,13.60
2023-02-17T15:32:00.238Z,13.70
2023-02-17T15:34:32.314Z,13.60
2023-02-17T15:37:01.132Z,13.70
2023-02-17T15:39:29.975Z,13.70
2023-02-17T15:42:06.300Z,13.70
2023-02-17T15:44:40.998Z,13.70
2023-02-17T15:47:14.897Z,13.70
2023-02-17T15:49:42.062Z,13.70
2023-02-17T15:52:13.210Z,13.70
2023-02-17T15:54:42.726Z,13.80
2023-02-17T15:57:20.913Z,13.80
2023-02-17T15:59:48.337Z,13.80
2023-02-17T16:02:21.448Z,13.90
2023-02-17T16:04:50.786Z,13.90
2023-02-17T16:07:18.001Z,13.90
2023-02-17T16:09:46.545Z,13.90
2023-02-17T16:12:26.360Z,13.90
2023-02-17T16:14:54.352Z,13.90
2023-02-17T16:17:21.582Z,13.90
2023-02-17T16:19:48.782Z,13.80
2023-02-17T16:22:16.484Z,13.90
2023-02-17T16:24:43.695Z,13.80
2023-02-17T16:27:16.033Z,13.90
2023-02-17T16:29:43.533Z,13.90
2023-02-17T16:32:12.432Z,13.80
2023-02-17T16:34:40.414Z,13.80
2023-02-17T16:37:15.345Z,13.80
2023-02-17T16:39:43.380Z,13.80
2023-02-17T16:42:14.706Z,13.80
2023-02-17T16:44:42.169Z,13.80
2023-02-17T16:47:22.692Z,13.80
2023-02-17T16:49:50.660Z,13.80
2023-02-17T16:52:25.161Z,13.80
2023-02-17T16:54:53.091Z,13.80
2023-02-17T16:57:22.295Z,13.80
2023-02-17T16:59:49.974Z,13.80
2023-02-17T17:02:17.261Z,13.70
2023-02-17T17:04:44.593Z,13.70
2023-02-17T17:07:14.445Z,13.70
2023-02-17T17:09:43.089Z,13.70
2023-02-17T17:12:12.466Z,13.70
2023-02-17T17:14:41.440Z,13.70
2023-02-17T17:17:11.436Z,13.70
2023-02-17T17:19:38.590Z,13.70
2023-02-17T17:22:05.781Z,13.70
2023-02-17T17:24:32.909Z,13.70
2023-02-17T17:27:00.097Z,13.70
2023-02-17T17:29:30.553Z,13.80
2023-02-17T17:32:01.602Z,13.70
2023-02-17T17:34:37.826Z,13.80
2023-02-17T17:37:06.401Z,13.80
2023-02-17T17:39:33.650Z,13.80
2023-02-17T17:42:01.100Z,13.80
2023-02-17T17:44:28.800Z,13.80
2023-02-17T17:46:56.031Z,13.80
2023-02-17T17:49:25.954Z,13.80
2023-02-17T17:51:53.096Z,13.80
2023-02-17T17:54:20.308Z,13.80
2023-02-17T17:56:48.408Z,13.80
2023-02-17T17:59:15.633Z,13.80
2023-02-17T18:01:45.601Z,13.80
2023-02-17T18:04:13.784Z,13.80
2023-02-17T18:06:46.459Z,13.90
2023-02-17T18:09:30.747Z,13.80
2023-02-17T18:12:01.711Z,13.80
2023-02-17T18:14:30.301Z,13.80
2023-02-17T18:16:58.790Z,13.80
2023-02-17T18:19:26.609Z,13.80
2023-02-17T18:21:55.265Z,13.90
2023-02-17T18:24:22.705Z,13.80
2023-02-17T18:26:52.140Z,13.80
2023-02-17T18:29:19.858Z,13.80
2023-02-17T18:31:48.030Z,13.80
2023-02-17T18:34:16.027Z,13.80
2023-02-17T18:36:43.385Z,13.80
2023-02-17T18:39:17.285Z,13.80
2023-02-17T18:41:44.566Z,13.70
2023-02-17T18:44:14.206Z,13.70
2023-02-17T18:46:41.630Z,13.80
2023-02-17T18:49:09.072Z,13.70
2023-02-17T18:51:36.987Z,13.70
2023-02-17T18:54:10.724Z,13.70
2023-02-17T18:56:39.919Z,13.70
2023-02-17T18:59:07.550Z,13.60
2023-02-17T19:01:39.454Z,13.60
2023-02-17T19:04:06.940Z,13.60
2023-02-17T19:06:34.996Z,13.50
2023-02-17T19:09:04.457Z,13.50
2023-02-17T19:11:33.052Z,13.50
2023-02-17T19:14:05.364Z,13.50
2023-02-17T19:16:34.643Z,13.50
2023-02-17T19:19:02.331Z,13.40
2023-02-17T19:21:29.680Z,13.40
2023-02-17T19:23:57.394Z,13.40
2023-02-17T19:26:24.549Z,13.40
2023-02-17T19:28:51.785Z,13.40
2023-02-17T19:31:21.250Z,13.40
2023-02-17T19:33:49.241Z,13.30
2023-02-17T19:36:20.152Z,13.30
2023-02-17T19:38:50.040Z,13.30
2023-02-17T19:41:19.392Z,13.30
2023-02-17T19:43:52.153Z,13.40
2023-02-17T19:46:23.325Z,13.30
2023-02-17T19:48:50.619Z,13.30
2023-02-17T19:51:18.586Z,13.20
2023-02-17T19:53:46.758Z,13.20
2023-02-17T19:56:18.508Z,13.20
2023-02-17T19:58:47.370Z,13.20
2023-02-17T20:01:18.519Z,13.30
2023-02-17T20:03:47.877Z,13.20
2023-02-17T20:06:18.058Z,13.20
2023-02-17T20:08:46.681Z,13.20
2023-02-17T20:11:15.433Z,13.20
2023-02-17T20:13:46.878Z,13.10
2023-02-17T20:16:16.841Z,13.10
2023-02-17T20:18:52.266Z,13.20
2023-02-17T20:21:25.501Z,13.20
2023-02-17T20:23:53.130Z,13.10
2023-02-17T20:26:26.215Z,13.10
2023-02-17T20:28:54.394Z,13.10
2023-02-17T20:31:22.910Z,13.00
2023-02-17T20:33:52.751Z,13.10
2023-02-17T20:36:22.321Z,13.00
2023-02-17T20:38:50.405Z,13.10
2023-02-17T20:41:19.929Z,13.00
2023-02-17T20:43:47.241Z,13.00
2023-02-17T20:46:22.135Z,13.10
2023-02-17T20:48:51.384Z,13.10
2023-02-17T20:51:18.768Z,13.10
2023-02-17T20:53:46.515Z,13.10
2023-02-17T20:56:16.648Z,13.10
2023-02-17T20:58:44.764Z,13.10
2023-02-17T21:01:24.085Z,13.20
2023-02-17T21:03:55.541Z,13.20
2023-02-17T21:06:40.268Z,13.20
2023-02-17T21:09:14.408Z,13.20
2023-02-17T21:11:47.707Z,13.20
2023-02-17T21:14:16.810Z,13.20
2023-02-17T21:16:45.494Z,13.20
2023-02-17T21:19:21.382Z,13.10
2023-02-17T21:21:59.696Z,13.20
2023-02-17T21:24:28.476Z,13.20
2023-02-17T21:27:21.985Z,13.10
2023-02-17T21:29:50.178Z,13.10
2023-02-17T21:32:22.270Z,13.10
2023-02-17T21:35:05.195Z,13.10
2023-02-17T21:37:35.551Z,13.10
2023-02-17T21:40:27.305Z,13.10
2023-02-17T21:43:12.943Z,13.10
2023-02-17T21:45:40.427Z,13.10
2023-02-17T21:48:08.732Z,13.10
2023-02-17T21:50:37.293Z,13.10
2023-02-17T21:53:04.437Z,13.10
2023-02-17T21:55:32.737Z,13.00
2023-02-17T21:57:59.828Z,13.00
2023-02-17T22:00:27.573Z,13.00
2023-02-17T22:02:54.777Z,13.00
2023-02-17T22:05:22.011Z,13.00
2023-02-17T22:07:51.020Z,13.00
2023-02-17T22:10:18.537Z,13.00
2023-02-17T22:12:45.780Z,13.00
2023-02-17T22:15:14.761Z,13.00
2023-02-17T22:17:42.207Z,13.00
2023-02-17T22:20:10.391Z,13.00
2023-02-17T22:22:38.050Z,12.90
2023-02-17T22:25:07.170Z,13.00
2023-02-17T22:27:34.895Z,12.90
2023-02-17T22:30:02.165Z,12.90
2023-02-17T22:32:29.848Z,12.90
2023-02-17T22:34:57.330Z,12.90
2023-02-17T22:37:24.600Z,12.90
2023-02-17T22:39:53.812Z,12.90
2023-02-17T22:42:23.098Z,13.00
2023-02-17T22:44:50.839Z,13.10
2023-02-17T22:47:21.619Z,13.10
2023-02-17T22:49:48.919Z,13.00
2023-02-17T22:52:16.514Z,12.90
2023-02-17T22:54:44.808Z,12.90
2023-02-17T22:57:11.990Z,12.90
2023-02-17T22:59:40.767Z,12.90
2023-02-17T23:02:08.054Z,12.80
2023-02-17T23:04:35.234Z,12.80
2023-02-17T23:07:02.842Z,12.80
2023-02-17T23:09:30.022Z,12.80
2023-02-17T23:11:58.837Z,12.80
2023-02-17T23:14:30.532Z,12.80
2023-02-17T23:17:02.190Z,12.90
2023-02-17T23:19:30.564Z,12.90
2023-02-17T23:22:00.899Z,12.90
2023-02-17T23:24:28.657Z,12.90
2023-02-17T23:26:58.414Z,12.90
2023-02-17T23:29:26.361Z,12.90
2023-02-17T23:31:53.625Z,12.90
2023-02-17T23:34:22.238Z,12.80
2023-02-17T23:36:49.879Z,12.80
2023-02-17T23:39:17.629Z,12.80
2023-02-17T23:41:45.468Z,12.70
2023-02-17T23:44:14.386Z,12.60
2023-02-17T23:46:43.936Z,12.70
2023-02-17T23:49:14.352Z,12.60
2023-02-17T23:51:44.356Z,12.50
2023-02-17T23:54:11.887Z,12.50
2023-02-17T23:56:39.484Z,12.60
2023-02-17T23:59:07.238Z,12.60
